Terminal Aerodrome Forecast
Issued by NWS

Home | Current Version | Previous Version | Text Only | Print | Product List | Glossary On
Versions: 1 2 3 4 5 6 7 8 9 10 11 12 13 14 15
000
FTUS43 KAPX 220100 AAA
TAFAPN
TAF AMD
KAPN 220100Z 2201/2224 VRB03KT 2SM BR SCT002
      TEMPO 2201/2205 1/2SM FG VV002
     FM220500 00000KT 1/2SM FG VV002
     FM221400 21006KT P6SM SCT120=

USA.gov is the U.S. government's official web portal to all federal, state and local government web resources and services.